createdAt,value
2022-12-27T00:01:33.806Z,13.02
2022-12-27T00:04:00.859Z,13.43
2022-12-27T00:06:28.703Z,13.45
2022-12-27T00:08:56.629Z,14.18
2022-12-27T00:11:26.332Z,13.23
2022-12-27T00:13:53.264Z,13.88
2022-12-27T00:16:21.336Z,14.15
2022-12-27T00:18:49.664Z,13.82
2022-12-27T00:21:17.601Z,13.43
2022-12-27T00:23:51.831Z,14.80
2022-12-27T00:26:24.679Z,14.65
2022-12-27T00:28:51.748Z,19.08
2022-12-27T00:31:21.504Z,18.13
2022-12-27T00:33:51.350Z,16.60
2022-12-27T00:36:20.797Z,17.50
2022-12-27T00:38:48.684Z,15.10
2022-12-27T00:41:16.302Z,15.25
2022-12-27T00:43:43.370Z,15.75
2022-12-27T00:46:11.385Z,15.55
2022-12-27T00:48:38.935Z,14.85
2022-12-27T00:51:18.106Z,15.43
2022-12-27T00:53:45.186Z,13.77
2022-12-27T00:56:19.921Z,13.90
2022-12-27T00:58:46.838Z,13.63
2022-12-27T01:01:20.162Z,13.35
2022-12-27T01:03:48.112Z,13.73
2022-12-27T01:06:18.075Z,13.48
2022-12-27T01:08:45.490Z,14.38
2022-12-27T01:11:13.433Z,15.38
2022-12-27T01:13:41.066Z,14.02
2022-12-27T01:16:21.095Z,13.50
2022-12-27T01:18:49.025Z,13.85
2022-12-27T01:21:19.819Z,14.13
2022-12-27T01:23:47.131Z,13.85
2022-12-27T01:26:17.966Z,13.63
2022-12-27T01:28:45.771Z,15.27
2022-12-27T01:31:16.907Z,14.73
2022-12-27T01:33:43.828Z,14.25
2022-12-27T01:36:13.129Z,15.75
2022-12-27T01:38:42.921Z,15.30
2022-12-27T01:41:49.974Z,16.88
2022-12-27T01:44:35.306Z,15.65
2022-12-27T01:47:04.634Z,18.75
2022-12-27T01:49:32.153Z,18.08
2022-12-27T01:51:59.130Z,16.45
2022-12-27T01:54:26.121Z,18.77
2022-12-27T01:56:55.827Z,18.10
2022-12-27T01:59:22.954Z,16.65
2022-12-27T02:01:50.883Z,17.70
2022-12-27T02:04:24.256Z,17.63
2022-12-27T02:06:52.146Z,17.15
2022-12-27T02:09:40.958Z,18.52
2022-12-27T02:12:10.275Z,19.98
2022-12-27T02:14:45.865Z,17.52
2022-12-27T02:17:17.516Z,17.65
2022-12-27T02:19:57.531Z,17.73
2022-12-27T02:23:01.282Z,18.65
2022-12-27T02:25:52.725Z,16.95
2022-12-27T02:29:02.485Z,17.20
2022-12-27T02:31:29.340Z,16.55
2022-12-27T02:33:58.757Z,17.13
2022-12-27T02:36:30.830Z,17.58
2022-12-27T02:39:01.713Z,17.88
2022-12-27T02:41:50.585Z,14.93
2022-12-27T02:44:38.044Z,14.15
2022-12-27T02:47:36.719Z,13.60
2022-12-27T02:50:22.895Z,13.50
2022-12-27T02:53:07.007Z,13.32
2022-12-27T02:56:10.876Z,13.48
2022-12-27T02:58:58.733Z,13.27
2022-12-27T03:01:55.864Z,11.48
2022-12-27T03:04:22.728Z,12.23
2022-12-27T03:07:31.853Z,12.07
2022-12-27T03:10:51.317Z,11.43
2022-12-27T03:13:53.099Z,11.82
2022-12-27T03:16:27.894Z,12.32
2022-12-27T03:19:12.980Z,13.27
2022-12-27T03:22:07.799Z,13.95
2022-12-27T03:24:58.484Z,11.18
2022-12-27T03:27:32.222Z,12.82
2022-12-27T03:30:21.251Z,13.00
2022-12-27T03:33:11.908Z,13.05
2022-12-27T03:36:28.037Z,11.80
2022-12-27T03:39:13.260Z,13.43
2022-12-27T03:42:04.756Z,11.68
2022-12-27T03:44:31.759Z,12.85
2022-12-27T03:47:10.247Z,13.52
2022-12-27T03:50:16.242Z,13.27
2022-12-27T03:52:49.226Z,13.27
2022-12-27T03:55:17.673Z,12.93
2022-12-27T03:57:44.931Z,14.93
2022-12-27T04:00:12.700Z,13.88
2022-12-27T04:02:43.688Z,14.95
2022-12-27T04:05:12.007Z,14.65
2022-12-27T04:07:38.888Z,15.60
2022-12-27T04:10:24.542Z,15.35
2022-12-27T04:13:10.157Z,14.80
2022-12-27T04:15:55.910Z,13.48
2022-12-27T04:18:41.413Z,11.77
2022-12-27T04:21:27.882Z,12.50
2022-12-27T04:24:13.283Z,12.88
2022-12-27T04:26:58.829Z,13.68
2022-12-27T04:29:44.457Z,12.82
2022-12-27T04:32:29.949Z,11.80
2022-12-27T04:34:56.824Z,12.10
2022-12-27T04:37:23.660Z,12.95
2022-12-27T04:40:09.371Z,12.48
2022-12-27T04:42:54.664Z,13.18
2022-12-27T04:45:41.458Z,12.00
2022-12-27T04:48:34.886Z,13.27
2022-12-27T04:51:20.446Z,14.48
2022-12-27T04:54:05.968Z,12.77
2022-12-27T04:56:32.836Z,13.02
2022-12-27T04:59:18.282Z,12.38
2022-12-27T05:02:03.546Z,11.23
2022-12-27T05:04:33.048Z,11.52
2022-12-27T05:07:20.536Z,11.60
2022-12-27T05:10:05.876Z,11.60
2022-12-27T05:12:51.341Z,12.75
2022-12-27T05:15:19.141Z,11.80
2022-12-27T05:17:46.006Z,12.68
2022-12-27T05:20:12.928Z,11.35
2022-12-27T05:22:58.423Z,13.65
2022-12-27T05:25:38.652Z,14.70
2022-12-27T05:28:08.426Z,14.38
2022-12-27T05:30:41.335Z,13.15
2022-12-27T05:33:08.935Z,11.20
2022-12-27T05:35:36.286Z,13.73
2022-12-27T05:38:03.820Z,12.75
2022-12-27T05:40:31.420Z,13.30
2022-12-27T05:43:00.393Z,14.23
2022-12-27T05:45:28.485Z,12.93
2022-12-27T05:47:55.585Z,11.15
2022-12-27T05:50:22.696Z,10.23
2022-12-27T05:52:50.599Z,10.18
2022-12-27T05:55:17.726Z,10.98
2022-12-27T05:57:44.628Z,10.20
2022-12-27T06:00:12.723Z,11.20
2022-12-27T06:02:42.408Z,11.00
2022-12-27T06:05:10.847Z,14.85
2022-12-27T06:07:38.912Z,14.82
2022-12-27T06:10:07.626Z,12.25
2022-12-27T06:12:34.701Z,11.57
2022-12-27T06:15:01.842Z,11.82
2022-12-27T06:17:28.809Z,12.57
2022-12-27T06:19:57.409Z,13.05
2022-12-27T06:22:25.152Z,12.07
2022-12-27T06:24:52.412Z,12.02
2022-12-27T06:27:19.349Z,11.68
2022-12-27T06:29:46.219Z,12.88
2022-12-27T06:32:13.526Z,11.25
2022-12-27T06:34:40.483Z,12.98
2022-12-27T06:37:07.351Z,14.52
2022-12-27T06:39:34.280Z,17.73
2022-12-27T06:42:01.197Z,19.85
2022-12-27T06:44:28.104Z,18.90
2022-12-27T06:46:55.123Z,17.48
2022-12-27T06:49:22.035Z,18.95
2022-12-27T06:51:55.667Z,19.50
2022-12-27T06:54:26.251Z,17.45
2022-12-27T06:56:53.099Z,19.35
2022-12-27T06:59:19.982Z,16.30
2022-12-27T07:01:46.942Z,16.35
2022-12-27T07:04:13.890Z,15.02
2022-12-27T07:06:40.867Z,15.07
2022-12-27T07:09:07.961Z,14.93
2022-12-27T07:11:37.079Z,16.73
2022-12-27T07:14:04.673Z,15.40
2022-12-27T07:16:31.986Z,13.52
2022-12-27T07:18:59.692Z,13.98
2022-12-27T07:21:29.141Z,15.55
2022-12-27T07:23:56.661Z,17.08
2022-12-27T07:26:30.267Z,17.08
2022-12-27T07:28:59.737Z,14.82
2022-12-27T07:31:30.943Z,13.93
2022-12-27T07:34:00.131Z,13.50
2022-12-27T07:36:30.217Z,13.57
2022-12-27T07:38:57.149Z,14.52
2022-12-27T07:41:25.537Z,13.50
2022-12-27T07:43:53.276Z,11.32
2022-12-27T07:46:22.680Z,11.02
2022-12-27T07:48:50.381Z,12.45
2022-12-27T07:51:18.992Z,12.15
2022-12-27T07:53:48.824Z,12.38
2022-12-27T07:56:25.419Z,11.93
2022-12-27T07:58:54.495Z,12.85
2022-12-27T08:01:23.292Z,11.88
2022-12-27T08:03:50.794Z,10.23
2022-12-27T08:06:23.394Z,8.70
2022-12-27T08:08:51.734Z,8.00
2022-12-27T08:11:19.686Z,9.32
2022-12-27T08:13:47.031Z,10.43
2022-12-27T08:16:20.974Z,11.45
2022-12-27T08:18:48.487Z,6.83
2022-12-27T08:21:15.801Z,6.82
2022-12-27T08:23:43.001Z,6.10
2022-12-27T08:26:10.761Z,5.03
2022-12-27T08:28:38.179Z,4.80
2022-12-27T08:31:09.871Z,4.43
2022-12-27T08:33:37.528Z,4.72
2022-12-27T08:36:22.354Z,4.20
2022-12-27T08:38:54.990Z,3.47
2022-12-27T08:41:22.586Z,3.53
2022-12-27T08:43:49.615Z,3.50
2022-12-27T08:46:16.711Z,4.07
2022-12-27T08:48:43.623Z,4.05
2022-12-27T08:51:13.823Z,4.32
2022-12-27T08:53:44.058Z,3.75
2022-12-27T08:56:11.158Z,6.57
2022-12-27T08:58:38.067Z,8.48
2022-12-27T09:01:09.414Z,13.10
2022-12-27T09:03:37.313Z,13.60
2022-12-27T09:06:12.151Z,14.52
2022-12-27T09:08:39.336Z,13.65
2022-12-27T09:11:13.863Z,11.05
2022-12-27T09:13:41.452Z,12.30
2022-12-27T09:16:11.169Z,11.88
2022-12-27T09:18:39.278Z,14.30
2022-12-27T09:21:12.371Z,16.23
2022-12-27T09:23:41.871Z,16.25
2022-12-27T09:26:14.386Z,16.98
2022-12-27T09:28:42.062Z,17.48
2022-12-27T09:31:10.704Z,16.83
2022-12-27T09:33:38.311Z,15.35
2022-12-27T09:36:09.852Z,11.90
2022-12-27T09:38:36.959Z,10.93
2022-12-27T09:42:34.214Z,9.65
2022-12-27T09:44:30.231Z,11.00
2022-12-27T09:46:59.195Z,9.75
2022-12-27T09:49:52.640Z,9.00
2022-12-27T09:52:26.838Z,10.07
2022-12-27T09:55:05.348Z,10.38
2022-12-27T09:57:42.409Z,10.85
2022-12-27T10:00:34.730Z,10.13
2022-12-27T10:03:06.960Z,10.35
2022-12-27T10:05:37.360Z,8.68
2022-12-27T10:08:07.176Z,7.82
2022-12-27T10:10:38.434Z,7.75
2022-12-27T10:13:37.672Z,8.18
2022-12-27T10:16:13.799Z,7.53
2022-12-27T10:18:59.203Z,3.58
2022-12-27T10:21:30.105Z,3.38
2022-12-27T10:24:20.928Z,3.28
2022-12-27T10:26:48.031Z,3.53
2022-12-27T10:29:23.054Z,3.63
2022-12-27T10:31:50.744Z,4.85
2022-12-27T10:34:24.757Z,5.13
2022-12-27T10:36:53.124Z,5.40
2022-12-27T10:39:30.110Z,5.45
2022-12-27T10:42:19.837Z,6.07
2022-12-27T10:44:46.720Z,5.55
2022-12-27T10:47:13.957Z,5.78
2022-12-27T10:49:45.803Z,5.35
2022-12-27T10:52:23.919Z,5.15
2022-12-27T10:54:55.602Z,5.85
2022-12-27T10:57:29.856Z,5.53
2022-12-27T11:00:19.682Z,6.15
2022-12-27T11:02:55.131Z,5.95
2022-12-27T11:05:26.913Z,5.00
2022-12-27T11:07:54.318Z,4.60
2022-12-27T11:10:27.309Z,4.75
2022-12-27T11:13:03.766Z,5.10
2022-12-27T11:15:34.985Z,4.40
2022-12-27T11:18:10.050Z,4.82
2022-12-27T11:20:39.601Z,6.03
2022-12-27T11:23:09.455Z,6.47
2022-12-27T11:25:51.759Z,5.80
2022-12-27T11:28:36.941Z,5.90
2022-12-27T11:31:07.706Z,5.35
2022-12-27T11:33:41.264Z,5.50
2022-12-27T11:36:12.812Z,6.03
2022-12-27T11:38:44.766Z,6.50
2022-12-27T11:41:27.562Z,6.40
2022-12-27T11:44:11.043Z,7.13
2022-12-27T11:46:59.257Z,8.32
2022-12-27T11:49:36.392Z,7.20
2022-12-27T11:52:12.052Z,8.85
2022-12-27T11:54:44.911Z,9.38
2022-12-27T11:57:15.171Z,10.80
2022-12-27T11:59:54.416Z,10.18
2022-12-27T12:02:27.362Z,10.02
2022-12-27T12:05:33.352Z,8.63
2022-12-27T12:08:48.753Z,8.38
2022-12-27T12:12:01.288Z,8.23
2022-12-27T12:14:54.701Z,9.68
2022-12-27T12:17:40.231Z,1.80
2022-12-27T12:20:22.281Z,2.13
2022-12-27T12:23:13.114Z,1.70
2022-12-27T12:26:01.754Z,2.05
2022-12-27T12:29:00.303Z,1.80
2022-12-27T12:32:00.647Z,2.13
2022-12-27T12:34:36.893Z,1.80
2022-12-27T12:37:35.591Z,1.83
2022-12-27T12:40:21.227Z,3.20
2022-12-27T12:43:13.895Z,1.65
2022-12-27T12:45:49.766Z,2.53
2022-12-27T12:48:41.610Z,1.50
2022-12-27T12:51:18.781Z,1.75
2022-12-27T12:53:57.860Z,1.88
2022-12-27T12:56:48.699Z,1.60
2022-12-27T12:59:45.944Z,1.73
2022-12-27T13:02:19.092Z,1.50
2022-12-27T13:05:16.654Z,1.30
2022-12-27T13:08:11.288Z,2.40
2022-12-27T13:10:38.167Z,2.10
2022-12-27T13:13:04.976Z,1.38
2022-12-27T13:15:37.926Z,1.88
2022-12-27T13:18:31.869Z,2.38
2022-12-27T13:21:42.111Z,1.95
2022-12-27T13:24:45.915Z,2.05
2022-12-27T13:27:35.600Z,1.80
2022-12-27T13:30:14.637Z,3.20
2022-12-27T13:33:33.921Z,1.75
2022-12-27T13:36:19.100Z,1.90
2022-12-27T13:39:15.055Z,2.15
2022-12-27T13:42:00.404Z,2.33
2022-12-27T13:45:11.179Z,2.13
2022-12-27T13:48:05.413Z,2.33
2022-12-27T13:50:38.070Z,2.58
2022-12-27T13:53:17.212Z,2.72
2022-12-27T13:55:55.675Z,2.63
2022-12-27T13:58:28.331Z,3.25
2022-12-27T14:01:16.842Z,2.55
2022-12-27T14:04:06.407Z,2.00
2022-12-27T14:06:36.206Z,2.15
2022-12-27T14:09:21.729Z,1.77
2022-12-27T14:12:05.144Z,2.55
2022-12-27T14:14:37.182Z,2.17
2022-12-27T14:17:16.961Z,2.20
2022-12-27T14:19:58.773Z,2.80
2022-12-27T14:22:40.888Z,2.20
2022-12-27T14:25:39.922Z,2.53
2022-12-27T14:28:45.686Z,2.90
2022-12-27T14:31:45.385Z,2.58
2022-12-27T14:34:49.948Z,2.83
2022-12-27T14:37:57.477Z,2.70
2022-12-27T14:41:01.625Z,2.40
2022-12-27T14:43:31.168Z,2.80
2022-12-27T14:46:24.222Z,3.28
2022-12-27T14:49:07.296Z,2.70
2022-12-27T14:52:08.727Z,3.28
2022-12-27T14:55:06.785Z,3.20
2022-12-27T14:58:06.419Z,3.00
2022-12-27T15:00:57.540Z,3.05
2022-12-27T15:03:49.157Z,3.42
2022-12-27T15:06:25.212Z,3.03
2022-12-27T15:09:07.359Z,3.40
2022-12-27T15:12:06.584Z,2.95
2022-12-27T15:15:04.177Z,4.00
2022-12-27T15:17:31.000Z,3.83
2022-12-27T15:20:25.159Z,4.00
2022-12-27T15:23:13.442Z,3.83
2022-12-27T15:26:10.299Z,4.03
2022-12-27T15:28:43.087Z,4.60
2022-12-27T15:31:21.442Z,4.32
2022-12-27T15:34:14.461Z,4.13
2022-12-27T15:36:44.739Z,4.05
2022-12-27T15:39:34.900Z,4.70
2022-12-27T15:42:44.809Z,4.55
2022-12-27T15:45:36.604Z,5.25
2022-12-27T15:48:30.119Z,4.53
2022-12-27T15:51:20.344Z,4.82
2022-12-27T15:54:02.151Z,4.93
2022-12-27T15:56:45.672Z,5.47
2022-12-27T15:59:35.438Z,5.72
2022-12-27T16:02:17.849Z,6.18
2022-12-27T16:04:50.499Z,5.80
2022-12-27T16:07:55.394Z,6.53
2022-12-27T16:10:35.316Z,5.97
2022-12-27T16:13:05.078Z,5.90
2022-12-27T16:15:55.790Z,6.22
2022-12-27T16:18:22.683Z,6.13
2022-12-27T16:20:58.669Z,6.93
2022-12-27T16:23:29.690Z,6.90
2022-12-27T16:26:15.636Z,5.43
2022-12-27T16:28:55.473Z,6.10
2022-12-27T16:31:41.854Z,6.50
2022-12-27T16:34:31.782Z,5.60
2022-12-27T16:37:00.200Z,6.68
2022-12-27T16:39:38.953Z,6.80
2022-12-27T16:42:07.888Z,7.53
2022-12-27T16:44:54.189Z,7.35
2022-12-27T16:47:30.148Z,7.68
2022-12-27T16:50:18.232Z,7.30
2022-12-27T16:53:13.314Z,7.03
2022-12-27T16:55:53.802Z,7.97
2022-12-27T16:58:26.820Z,7.65
2022-12-27T17:00:56.875Z,7.05
2022-12-27T17:03:32.346Z,6.95
2022-12-27T17:09:09.707Z,8.23
2022-12-27T17:11:51.950Z,7.70
2022-12-27T17:14:21.887Z,8.70
2022-12-27T17:16:51.981Z,8.15
2022-12-27T17:19:32.982Z,7.85
2022-12-27T17:22:06.551Z,7.68
2022-12-27T17:24:34.380Z,8.50
2022-12-27T17:27:25.463Z,8.23
2022-12-27T17:30:36.867Z,7.68
2022-12-27T17:33:09.315Z,8.00
2022-12-27T17:35:42.958Z,7.53
2022-12-27T17:38:16.046Z,7.20
2022-12-27T17:41:01.222Z,7.93
2022-12-27T17:44:25.128Z,7.00
2022-12-27T17:47:02.448Z,8.95
2022-12-27T17:49:31.316Z,7.60
2022-12-27T17:52:19.241Z,7.63
2022-12-27T17:55:04.731Z,7.32
2022-12-27T17:57:50.941Z,7.97
2022-12-27T18:00:26.864Z,8.65
2022-12-27T18:02:56.917Z,7.90
2022-12-27T18:05:29.620Z,7.57
2022-12-27T18:08:07.367Z,7.38
2022-12-27T18:10:36.748Z,7.03
2022-12-27T18:13:07.165Z,6.68
2022-12-27T18:15:37.397Z,7.10
2022-12-27T18:18:07.235Z,6.25
2022-12-27T18:20:40.635Z,6.32
2022-12-27T18:23:12.748Z,7.15
2022-12-27T18:25:50.048Z,7.65
2022-12-27T18:28:20.337Z,7.20
2022-12-27T18:31:22.299Z,6.70
2022-12-27T18:33:55.248Z,7.47
2022-12-27T18:36:34.145Z,6.55
2022-12-27T18:39:13.525Z,5.97
2022-12-27T18:41:48.845Z,6.30
2022-12-27T18:46:57.123Z,7.22
2022-12-27T18:49:30.939Z,7.28
2022-12-27T18:51:58.587Z,6.40
2022-12-27T18:54:28.245Z,6.07
2022-12-27T18:56:59.714Z,6.07
2022-12-27T18:59:36.684Z,5.75
2022-12-27T19:02:33.014Z,6.20
2022-12-27T19:05:27.448Z,5.22
2022-12-27T19:08:24.536Z,5.78
2022-12-27T19:10:52.166Z,5.32
2022-12-27T19:13:26.522Z,4.70
2022-12-27T19:15:55.292Z,5.03
2022-12-27T19:18:29.414Z,4.78
2022-12-27T19:21:01.565Z,4.30
2022-12-27T19:23:39.846Z,4.20
2022-12-27T19:26:15.770Z,4.40
2022-12-27T19:28:58.751Z,4.70
2022-12-27T19:31:25.899Z,4.25
2022-12-27T19:34:06.808Z,4.40
2022-12-27T19:36:38.248Z,4.30
2022-12-27T19:39:18.320Z,5.00
2022-12-27T19:41:46.203Z,5.55
2022-12-27T19:44:13.171Z,4.88
2022-12-27T19:46:40.118Z,4.97
2022-12-27T19:49:40.219Z,4.78
2022-12-27T19:51:57.305Z,4.72
2022-12-27T19:54:27.493Z,5.07
2022-12-27T19:56:55.763Z,6.05
2022-12-27T19:59:24.365Z,5.65
2022-12-27T20:01:52.809Z,6.45
2022-12-27T20:04:19.820Z,5.60
2022-12-27T20:06:49.062Z,4.90
2022-12-27T20:09:18.791Z,5.80
2022-12-27T20:11:46.916Z,6.25
2022-12-27T20:14:14.715Z,6.03
2022-12-27T20:16:41.820Z,5.15
2022-12-27T20:19:12.476Z,5.30
2022-12-27T20:21:40.803Z,6.15
2022-12-27T20:24:11.343Z,7.82
2022-12-27T20:26:38.858Z,7.10
2022-12-27T20:29:05.919Z,6.03
2022-12-27T20:31:32.994Z,6.32
2022-12-27T20:34:00.143Z,6.03
2022-12-27T20:36:27.089Z,5.15
2022-12-27T20:38:53.951Z,4.70
2022-12-27T20:41:21.886Z,4.28
2022-12-27T20:43:54.277Z,3.85
2022-12-27T20:46:21.301Z,3.20
2022-12-27T20:48:48.462Z,3.40
2022-12-27T20:51:18.720Z,3.08
2022-12-27T20:53:48.664Z,3.63
2022-12-27T20:56:16.455Z,2.97
2022-12-27T20:58:43.658Z,3.53
2022-12-27T21:01:22.301Z,2.90
2022-12-27T21:03:49.649Z,3.08
2022-12-27T21:06:22.171Z,2.92
2022-12-27T21:08:56.375Z,3.20
2022-12-27T21:11:27.255Z,3.47
2022-12-27T21:13:55.317Z,3.05
2022-12-27T21:16:26.504Z,3.30
2022-12-27T21:18:53.985Z,3.35
2022-12-27T21:21:27.654Z,3.10
2022-12-27T21:23:55.592Z,2.97
2022-12-27T21:26:28.120Z,2.95
2022-12-27T21:28:56.040Z,3.40
2022-12-27T21:31:23.482Z,3.10
2022-12-27T21:33:51.085Z,3.50
2022-12-27T21:36:23.207Z,2.65
2022-12-27T21:38:50.614Z,3.13
2022-12-27T21:41:21.050Z,3.25
2022-12-27T21:43:49.222Z,3.22
2022-12-27T21:46:17.541Z,3.20
2022-12-27T21:48:44.635Z,3.83
2022-12-27T21:51:14.427Z,3.70
2022-12-27T21:53:42.423Z,3.25
2022-12-27T21:56:11.636Z,3.70
2022-12-27T21:58:40.217Z,3.47
2022-12-27T22:01:10.752Z,3.40
2022-12-27T22:03:39.922Z,3.55
2022-12-27T22:06:17.333Z,3.28
2022-12-27T22:08:46.561Z,2.72
2022-12-27T22:11:13.958Z,3.13
2022-12-27T22:13:42.058Z,3.40
2022-12-27T22:16:14.681Z,3.50
2022-12-27T22:18:42.957Z,3.75
2022-12-27T22:21:12.505Z,3.17
2022-12-27T22:23:42.545Z,2.97
2022-12-27T22:26:15.097Z,2.97
2022-12-27T22:28:42.399Z,2.88
2022-12-27T22:31:11.952Z,2.92
2022-12-27T22:33:39.222Z,3.63
2022-12-27T22:36:11.304Z,2.95
2022-12-27T22:38:38.485Z,2.80
2022-12-27T22:41:12.695Z,3.80
2022-12-27T22:43:41.412Z,4.10
2022-12-27T22:46:10.403Z,4.80
2022-12-27T22:48:37.937Z,3.35
2022-12-27T22:51:08.740Z,2.88
2022-12-27T22:53:35.772Z,3.33
2022-12-27T22:56:02.708Z,3.05
2022-12-27T22:58:32.668Z,3.47
2022-12-27T23:00:59.853Z,3.30
2022-12-27T23:03:26.853Z,3.47
2022-12-27T23:05:58.492Z,3.97
2022-12-27T23:08:26.186Z,3.80
2022-12-27T23:10:53.175Z,3.95
2022-12-27T23:13:22.394Z,3.22
2022-12-27T23:16:00.049Z,3.42
2022-12-27T23:18:28.188Z,3.47
2022-12-27T23:21:21.632Z,4.10
2022-12-27T23:23:43.314Z,4.22
2022-12-27T23:26:14.657Z,3.80
2022-12-27T23:28:43.848Z,5.10
2022-12-27T23:31:12.264Z,4.00
2022-12-27T23:33:40.986Z,3.92
2022-12-27T23:36:08.487Z,3.67
2022-12-27T23:38:36.688Z,3.90
2022-12-27T23:41:05.999Z,3.70
2022-12-27T23:43:54.839Z,4.13
2022-12-27T23:46:27.576Z,3.85
2022-12-27T23:48:57.330Z,4.43
2022-12-27T23:51:24.951Z,5.05
2022-12-27T23:53:52.636Z,4.45
2022-12-27T23:56:23.587Z,5.50
2022-12-27T23:58:52.531Z,5.30
